sensor_id;sensor_type;location;lat;lon;timestamp;P1;durP1;ratioP1;P2;durP2;ratioP2
19929;SDS011;10127;47.780;9.606;2023-05-07T00:01:07;6.43;;;4.30;;
19929;SDS011;10127;47.780;9.606;2023-05-07T00:03:33;6.38;;;4.40;;
19929;SDS011;10127;47.780;9.606;2023-05-07T00:05:59;7.20;;;4.47;;
19929;SDS011;10127;47.780;9.606;2023-05-07T00:08:24;7.30;;;4.07;;
19929;SDS011;10127;47.780;9.606;2023-05-07T00:10:50;8.13;;;4.38;;
19929;SDS011;10127;47.780;9.606;2023-05-07T00:13:16;6.40;;;4.03;;
19929;SDS011;10127;47.780;9.606;2023-05-07T00:15:41;5.50;;;3.50;;
19929;SDS011;10127;47.780;9.606;2023-05-07T00:18:07;7.18;;;3.88;;
19929;SDS011;10127;47.780;9.606;2023-05-07T00:20:32;5.95;;;4.10;;
19929;SDS011;10127;47.780;9.606;2023-05-07T00:22:58;8.82;;;4.10;;
19929;SDS011;10127;47.780;9.606;2023-05-07T00:25:23;4.40;;;3.80;;
19929;SDS011;10127;47.780;9.606;2023-05-07T00:27:49;6.18;;;4.80;;
19929;SDS011;10127;47.780;9.606;2023-05-07T00:30:15;4.80;;;4.05;;
19929;SDS011;10127;47.780;9.606;2023-05-07T00:32:40;6.88;;;4.45;;
19929;SDS011;10127;47.780;9.606;2023-05-07T00:35:06;5.10;;;4.15;;
19929;SDS011;10127;47.780;9.606;2023-05-07T00:37:32;5.22;;;4.40;;
19929;SDS011;10127;47.780;9.606;2023-05-07T00:39:58;6.25;;;4.70;;
19929;SDS011;10127;47.780;9.606;2023-05-07T00:42:24;7.60;;;4.38;;
19929;SDS011;10127;47.780;9.606;2023-05-07T00:44:49;5.53;;;4.07;;
19929;SDS011;10127;47.780;9.606;2023-05-07T00:47:15;9.27;;;3.95;;
19929;SDS011;10127;47.780;9.606;2023-05-07T00:49:41;6.53;;;4.40;;
19929;SDS011;10127;47.780;9.606;2023-05-07T00:52:09;5.30;;;3.90;;
19929;SDS011;10127;47.780;9.606;2023-05-07T00:54:40;8.98;;;4.45;;
19929;SDS011;10127;47.780;9.606;2023-05-07T00:57:06;11.95;;;4.30;;
19929;SDS011;10127;47.780;9.606;2023-05-07T00:59:33;7.40;;;4.57;;
19929;SDS011;10127;47.780;9.606;2023-05-07T01:01:59;7.38;;;4.75;;
19929;SDS011;10127;47.780;9.606;2023-05-07T01:04:26;7.05;;;4.40;;
19929;SDS011;10127;47.780;9.606;2023-05-07T01:06:51;7.13;;;4.80;;
19929;SDS011;10127;47.780;9.606;2023-05-07T01:09:21;5.10;;;4.60;;
19929;SDS011;10127;47.780;9.606;2023-05-07T01:11:47;5.82;;;4.45;;
19929;SDS011;10127;47.780;9.606;2023-05-07T01:14:14;9.07;;;4.20;;
19929;SDS011;10127;47.780;9.606;2023-05-07T01:16:40;6.90;;;4.60;;
19929;SDS011;10127;47.780;9.606;2023-05-07T01:19:07;6.15;;;4.32;;
19929;SDS011;10127;47.780;9.606;2023-05-07T01:21:33;8.65;;;4.53;;
19929;SDS011;10127;47.780;9.606;2023-05-07T01:24:02;6.50;;;4.25;;
19929;SDS011;10127;47.780;9.606;2023-05-07T01:26:27;6.22;;;4.32;;
19929;SDS011;10127;47.780;9.606;2023-05-07T01:28:53;7.13;;;4.45;;
19929;SDS011;10127;47.780;9.606;2023-05-07T01:31:18;7.35;;;4.47;;
19929;SDS011;10127;47.780;9.606;2023-05-07T01:33:45;6.07;;;4.30;;
19929;SDS011;10127;47.780;9.606;2023-05-07T01:36:12;5.00;;;3.53;;
19929;SDS011;10127;47.780;9.606;2023-05-07T01:38:38;6.78;;;4.30;;
19929;SDS011;10127;47.780;9.606;2023-05-07T01:41:05;7.22;;;4.55;;
19929;SDS011;10127;47.780;9.606;2023-05-07T01:43:31;6.13;;;3.67;;
19929;SDS011;10127;47.780;9.606;2023-05-07T01:45:58;6.53;;;4.30;;
19929;SDS011;10127;47.780;9.606;2023-05-07T01:48:24;9.45;;;3.75;;
19929;SDS011;10127;47.780;9.606;2023-05-07T01:50:51;5.32;;;3.70;;
19929;SDS011;10127;47.780;9.606;2023-05-07T01:53:17;5.32;;;3.83;;
19929;SDS011;10127;47.780;9.606;2023-05-07T01:55:42;9.57;;;3.95;;
19929;SDS011;10127;47.780;9.606;2023-05-07T01:58:08;6.25;;;4.22;;
19929;SDS011;10127;47.780;9.606;2023-05-07T02:00:34;4.43;;;3.70;;
19929;SDS011;10127;47.780;9.606;2023-05-07T02:02:59;5.00;;;4.15;;
19929;SDS011;10127;47.780;9.606;2023-05-07T02:05:25;5.07;;;4.07;;
19929;SDS011;10127;47.780;9.606;2023-05-07T02:07:50;6.63;;;4.20;;
19929;SDS011;10127;47.780;9.606;2023-05-07T02:10:16;7.22;;;4.47;;
19929;SDS011;10127;47.780;9.606;2023-05-07T02:12:42;4.97;;;4.43;;
19929;SDS011;10127;47.780;9.606;2023-05-07T02:15:07;5.00;;;4.28;;
19929;SDS011;10127;47.780;9.606;2023-05-07T02:17:33;6.60;;;4.03;;
19929;SDS011;10127;47.780;9.606;2023-05-07T02:19:59;5.65;;;4.47;;
19929;SDS011;10127;47.780;9.606;2023-05-07T02:22:25;7.10;;;3.92;;
19929;SDS011;10127;47.780;9.606;2023-05-07T02:24:50;5.57;;;4.07;;
19929;SDS011;10127;47.780;9.606;2023-05-07T02:27:16;4.97;;;3.55;;
19929;SDS011;10127;47.780;9.606;2023-05-07T02:29:41;5.80;;;4.03;;
19929;SDS011;10127;47.780;9.606;2023-05-07T02:32:07;5.35;;;3.78;;
19929;SDS011;10127;47.780;9.606;2023-05-07T02:34:32;5.60;;;3.80;;
19929;SDS011;10127;47.780;9.606;2023-05-07T02:36:58;5.32;;;4.38;;
19929;SDS011;10127;47.780;9.606;2023-05-07T02:39:24;4.93;;;4.43;;
19929;SDS011;10127;47.780;9.606;2023-05-07T02:41:49;8.07;;;4.28;;
19929;SDS011;10127;47.780;9.606;2023-05-07T02:44:15;5.47;;;4.70;;
19929;SDS011;10127;47.780;9.606;2023-05-07T02:46:40;5.15;;;4.15;;
19929;SDS011;10127;47.780;9.606;2023-05-07T02:49:06;6.57;;;4.25;;
19929;SDS011;10127;47.780;9.606;2023-05-07T03:12:09;6.45;;;4.97;;
19929;SDS011;10127;47.780;9.606;2023-05-07T03:14:35;6.10;;;5.10;;
19929;SDS011;10127;47.780;9.606;2023-05-07T03:17:00;6.80;;;4.65;;
19929;SDS011;10127;47.780;9.606;2023-05-07T03:19:26;7.75;;;5.03;;
19929;SDS011;10127;47.780;9.606;2023-05-07T03:21:52;5.43;;;4.70;;
19929;SDS011;10127;47.780;9.606;2023-05-07T03:24:17;6.65;;;4.15;;
19929;SDS011;10127;47.780;9.606;2023-05-07T03:26:43;6.28;;;4.93;;
19929;SDS011;10127;47.780;9.606;2023-05-07T03:29:08;8.48;;;4.97;;
19929;SDS011;10127;47.780;9.606;2023-05-07T03:31:34;6.53;;;4.80;;
19929;SDS011;10127;47.780;9.606;2023-05-07T03:33:59;6.07;;;4.53;;
19929;SDS011;10127;47.780;9.606;2023-05-07T03:36:25;5.80;;;4.90;;
19929;SDS011;10127;47.780;9.606;2023-05-07T03:38:53;8.18;;;4.25;;
19929;SDS011;10127;47.780;9.606;2023-05-07T03:41:19;9.07;;;4.70;;
19929;SDS011;10127;47.780;9.606;2023-05-07T03:43:45;6.63;;;4.75;;
19929;SDS011;10127;47.780;9.606;2023-05-07T03:46:10;7.43;;;4.70;;
19929;SDS011;10127;47.780;9.606;2023-05-07T03:48:36;9.95;;;4.60;;
19929;SDS011;10127;47.780;9.606;2023-05-07T03:51:02;5.93;;;4.25;;
19929;SDS011;10127;47.780;9.606;2023-05-07T03:53:27;6.88;;;4.53;;
19929;SDS011;10127;47.780;9.606;2023-05-07T03:55:53;7.45;;;3.80;;
19929;SDS011;10127;47.780;9.606;2023-05-07T03:58:18;5.88;;;4.60;;
19929;SDS011;10127;47.780;9.606;2023-05-07T04:00:44;4.85;;;4.35;;
19929;SDS011;10127;47.780;9.606;2023-05-07T04:03:09;6.65;;;3.88;;
19929;SDS011;10127;47.780;9.606;2023-05-07T04:05:35;4.70;;;4.15;;
19929;SDS011;10127;47.780;9.606;2023-05-07T04:08:01;8.75;;;4.43;;
19929;SDS011;10127;47.780;9.606;2023-05-07T04:10:27;7.90;;;4.80;;
19929;SDS011;10127;47.780;9.606;2023-05-07T04:12:54;6.80;;;5.13;;
19929;SDS011;10127;47.780;9.606;2023-05-07T04:15:19;5.97;;;4.40;;
19929;SDS011;10127;47.780;9.606;2023-05-07T04:17:45;6.13;;;5.05;;
19929;SDS011;10127;47.780;9.606;2023-05-07T04:20:13;9.15;;;4.88;;
19929;SDS011;10127;47.780;9.606;2023-05-07T04:22:40;5.28;;;4.50;;
19929;SDS011;10127;47.780;9.606;2023-05-07T04:25:06;10.05;;;4.55;;
19929;SDS011;10127;47.780;9.606;2023-05-07T04:27:32;6.55;;;4.70;;
19929;SDS011;10127;47.780;9.606;2023-05-07T04:29:58;5.05;;;4.55;;
19929;SDS011;10127;47.780;9.606;2023-05-07T04:32:25;6.97;;;4.45;;
19929;SDS011;10127;47.780;9.606;2023-05-07T04:34:58;5.22;;;4.22;;
19929;SDS011;10127;47.780;9.606;2023-05-07T04:37:24;5.75;;;4.28;;
19929;SDS011;10127;47.780;9.606;2023-05-07T04:39:51;7.93;;;4.03;;
19929;SDS011;10127;47.780;9.606;2023-05-07T04:42:17;6.50;;;4.50;;
19929;SDS011;10127;47.780;9.606;2023-05-07T04:44:43;7.57;;;3.95;;
19929;SDS011;10127;47.780;9.606;2023-05-07T04:47:10;5.45;;;3.85;;
19929;SDS011;10127;47.780;9.606;2023-05-07T04:49:36;4.63;;;3.78;;
19929;SDS011;10127;47.780;9.606;2023-05-07T04:52:02;5.57;;;4.40;;
19929;SDS011;10127;47.780;9.606;2023-05-07T04:54:28;5.60;;;4.78;;
19929;SDS011;10127;47.780;9.606;2023-05-07T04:56:54;6.88;;;4.55;;
19929;SDS011;10127;47.780;9.606;2023-05-07T04:59:20;6.50;;;4.20;;
19929;SDS011;10127;47.780;9.606;2023-05-07T05:01:46;7.45;;;4.38;;
19929;SDS011;10127;47.780;9.606;2023-05-07T05:04:11;6.75;;;4.00;;
19929;SDS011;10127;47.780;9.606;2023-05-07T05:06:37;4.88;;;4.25;;
19929;SDS011;10127;47.780;9.606;2023-05-07T05:09:03;6.57;;;4.07;;
19929;SDS011;10127;47.780;9.606;2023-05-07T05:11:29;9.07;;;3.70;;
19929;SDS011;10127;47.780;9.606;2023-05-07T05:13:55;4.95;;;3.75;;
19929;SDS011;10127;47.780;9.606;2023-05-07T05:16:21;4.70;;;4.18;;
19929;SDS011;10127;47.780;9.606;2023-05-07T05:18:47;5.72;;;3.92;;
19929;SDS011;10127;47.780;9.606;2023-05-07T05:21:13;6.07;;;3.90;;
19929;SDS011;10127;47.780;9.606;2023-05-07T05:23:38;5.88;;;3.83;;
19929;SDS011;10127;47.780;9.606;2023-05-07T05:26:04;7.75;;;4.13;;
19929;SDS011;10127;47.780;9.606;2023-05-07T05:28:29;4.35;;;3.67;;
19929;SDS011;10127;47.780;9.606;2023-05-07T05:30:55;4.43;;;3.50;;
19929;SDS011;10127;47.780;9.606;2023-05-07T05:33:21;4.97;;;3.60;;
19929;SDS011;10127;47.780;9.606;2023-05-07T05:35:46;5.25;;;3.80;;
19929;SDS011;10127;47.780;9.606;2023-05-07T05:38:12;3.83;;;3.38;;
19929;SDS011;10127;47.780;9.606;2023-05-07T05:40:38;5.53;;;4.20;;
19929;SDS011;10127;47.780;9.606;2023-05-07T05:43:03;6.95;;;4.07;;
19929;SDS011;10127;47.780;9.606;2023-05-07T05:45:29;5.90;;;4.30;;
19929;SDS011;10127;47.780;9.606;2023-05-07T05:47:55;5.40;;;4.13;;
19929;SDS011;10127;47.780;9.606;2023-05-07T05:50:21;5.78;;;3.72;;
19929;SDS011;10127;47.780;9.606;2023-05-07T05:52:47;5.05;;;3.90;;
19929;SDS011;10127;47.780;9.606;2023-05-07T05:55:13;9.00;;;3.40;;
19929;SDS011;10127;47.780;9.606;2023-05-07T05:57:38;5.07;;;3.10;;
19929;SDS011;10127;47.780;9.606;2023-05-07T06:00:05;6.03;;;4.28;;
19929;SDS011;10127;47.780;9.606;2023-05-07T06:02:31;3.95;;;3.55;;
19929;SDS011;10127;47.780;9.606;2023-05-07T06:04:57;4.85;;;3.92;;
19929;SDS011;10127;47.780;9.606;2023-05-07T06:07:22;4.65;;;3.90;;
19929;SDS011;10127;47.780;9.606;2023-05-07T06:09:48;5.07;;;3.88;;
19929;SDS011;10127;47.780;9.606;2023-05-07T06:12:13;7.95;;;3.75;;
19929;SDS011;10127;47.780;9.606;2023-05-07T06:14:39;5.45;;;3.58;;
19929;SDS011;10127;47.780;9.606;2023-05-07T06:17:06;5.32;;;3.50;;
19929;SDS011;10127;47.780;9.606;2023-05-07T06:19:32;4.63;;;3.40;;
19929;SDS011;10127;47.780;9.606;2023-05-07T06:21:57;3.95;;;3.55;;
19929;SDS011;10127;47.780;9.606;2023-05-07T06:24:23;5.25;;;3.20;;
19929;SDS011;10127;47.780;9.606;2023-05-07T06:26:49;8.95;;;3.20;;
19929;SDS011;10127;47.780;9.606;2023-05-07T06:29:15;5.20;;;3.85;;
19929;SDS011;10127;47.780;9.606;2023-05-07T06:31:40;5.57;;;3.45;;
19929;SDS011;10127;47.780;9.606;2023-05-07T06:34:06;4.60;;;3.50;;
19929;SDS011;10127;47.780;9.606;2023-05-07T06:36:32;7.05;;;3.60;;
19929;SDS011;10127;47.780;9.606;2023-05-07T06:38:59;5.72;;;3.65;;
19929;SDS011;10127;47.780;9.606;2023-05-07T06:41:24;3.88;;;2.95;;
19929;SDS011;10127;47.780;9.606;2023-05-07T06:43:50;4.90;;;3.10;;
19929;SDS011;10127;47.780;9.606;2023-05-07T06:46:16;6.30;;;3.00;;
19929;SDS011;10127;47.780;9.606;2023-05-07T06:48:48;4.32;;;3.13;;
19929;SDS011;10127;47.780;9.606;2023-05-07T06:51:13;5.90;;;2.70;;
19929;SDS011;10127;47.780;9.606;2023-05-07T06:53:39;5.22;;;2.30;;
19929;SDS011;10127;47.780;9.606;2023-05-07T06:56:05;4.03;;;2.40;;
19929;SDS011;10127;47.780;9.606;2023-05-07T06:58:31;5.28;;;2.85;;
19929;SDS011;10127;47.780;9.606;2023-05-07T07:00:56;2.03;;;1.80;;
19929;SDS011;10127;47.780;9.606;2023-05-07T07:03:22;4.07;;;2.40;;
19929;SDS011;10127;47.780;9.606;2023-05-07T07:05:47;4.22;;;2.20;;
19929;SDS011;10127;47.780;9.606;2023-05-07T07:08:17;3.30;;;2.10;;
19929;SDS011;10127;47.780;9.606;2023-05-07T07:10:42;2.65;;;1.95;;
19929;SDS011;10127;47.780;9.606;2023-05-07T07:13:08;2.00;;;1.70;;
19929;SDS011;10127;47.780;9.606;2023-05-07T07:15:34;3.13;;;2.30;;
19929;SDS011;10127;47.780;9.606;2023-05-07T07:17:59;2.00;;;1.70;;
19929;SDS011;10127;47.780;9.606;2023-05-07T07:20:25;3.63;;;1.80;;
19929;SDS011;10127;47.780;9.606;2023-05-07T07:22:50;3.50;;;1.90;;
19929;SDS011;10127;47.780;9.606;2023-05-07T07:25:16;2.13;;;1.88;;
19929;SDS011;10127;47.780;9.606;2023-05-07T07:27:41;2.88;;;1.88;;
19929;SDS011;10127;47.780;9.606;2023-05-07T07:30:07;4.55;;;1.55;;
19929;SDS011;10127;47.780;9.606;2023-05-07T07:32:33;3.85;;;2.00;;
19929;SDS011;10127;47.780;9.606;2023-05-07T07:34:59;3.08;;;1.85;;
19929;SDS011;10127;47.780;9.606;2023-05-07T07:37:25;2.33;;;1.73;;
19929;SDS011;10127;47.780;9.606;2023-05-07T07:39:50;3.55;;;1.80;;
19929;SDS011;10127;47.780;9.606;2023-05-07T07:42:16;2.78;;;1.75;;
19929;SDS011;10127;47.780;9.606;2023-05-07T07:44:41;1.67;;;1.58;;
19929;SDS011;10127;47.780;9.606;2023-05-07T07:47:07;2.88;;;2.15;;
19929;SDS011;10127;47.780;9.606;2023-05-07T07:49:32;4.50;;;1.98;;
19929;SDS011;10127;47.780;9.606;2023-05-07T07:51:58;2.78;;;1.90;;
19929;SDS011;10127;47.780;9.606;2023-05-07T07:54:24;3.33;;;1.80;;
19929;SDS011;10127;47.780;9.606;2023-05-07T07:56:50;3.22;;;2.00;;
19929;SDS011;10127;47.780;9.606;2023-05-07T07:59:16;2.67;;;1.77;;
19929;SDS011;10127;47.780;9.606;2023-05-07T08:01:43;2.47;;;2.10;;
19929;SDS011;10127;47.780;9.606;2023-05-07T08:04:09;7.60;;;2.20;;
19929;SDS011;10127;47.780;9.606;2023-05-07T08:06:35;2.53;;;2.10;;
19929;SDS011;10127;47.780;9.606;2023-05-07T08:09:00;3.97;;;2.08;;
19929;SDS011;10127;47.780;9.606;2023-05-07T08:11:27;2.63;;;2.22;;
19929;SDS011;10127;47.780;9.606;2023-05-07T08:13:53;5.00;;;2.00;;
19929;SDS011;10127;47.780;9.606;2023-05-07T08:16:19;6.53;;;2.80;;
19929;SDS011;10127;47.780;9.606;2023-05-07T08:18:45;8.48;;;2.83;;
19929;SDS011;10127;47.780;9.606;2023-05-07T08:21:11;4.90;;;2.42;;
19929;SDS011;10127;47.780;9.606;2023-05-07T08:23:36;4.18;;;2.63;;
19929;SDS011;10127;47.780;9.606;2023-05-07T08:26:10;3.47;;;2.58;;
19929;SDS011;10127;47.780;9.606;2023-05-07T08:28:36;3.92;;;2.33;;
19929;SDS011;10127;47.780;9.606;2023-05-07T08:31:01;4.07;;;2.70;;
19929;SDS011;10127;47.780;9.606;2023-05-07T08:33:27;4.65;;;2.58;;
19929;SDS011;10127;47.780;9.606;2023-05-07T08:35:52;9.20;;;3.13;;
19929;SDS011;10127;47.780;9.606;2023-05-07T08:38:18;6.22;;;2.70;;
19929;SDS011;10127;47.780;9.606;2023-05-07T08:40:44;3.10;;;2.65;;
19929;SDS011;10127;47.780;9.606;2023-05-07T08:43:16;4.47;;;2.90;;
19929;SDS011;10127;47.780;9.606;2023-05-07T08:45:43;3.95;;;2.08;;
19929;SDS011;10127;47.780;9.606;2023-05-07T08:48:14;3.55;;;2.38;;
19929;SDS011;10127;47.780;9.606;2023-05-07T08:50:41;4.03;;;2.05;;
19929;SDS011;10127;47.780;9.606;2023-05-07T08:53:06;5.18;;;2.97;;
19929;SDS011;10127;47.780;9.606;2023-05-07T08:55:32;3.08;;;2.35;;
19929;SDS011;10127;47.780;9.606;2023-05-07T08:57:58;5.40;;;3.05;;
19929;SDS011;10127;47.780;9.606;2023-05-07T09:00:24;6.10;;;2.42;;
19929;SDS011;10127;47.780;9.606;2023-05-07T09:02:49;5.35;;;2.50;;
19929;SDS011;10127;47.780;9.606;2023-05-07T09:05:15;5.90;;;2.40;;
19929;SDS011;10127;47.780;9.606;2023-05-07T09:07:41;4.10;;;1.90;;
19929;SDS011;10127;47.780;9.606;2023-05-07T09:10:06;4.45;;;2.50;;
19929;SDS011;10127;47.780;9.606;2023-05-07T09:12:32;4.50;;;2.40;;
19929;SDS011;10127;47.780;9.606;2023-05-07T09:15:00;3.90;;;2.40;;
19929;SDS011;10127;47.780;9.606;2023-05-07T09:17:26;4.10;;;2.47;;
19929;SDS011;10127;47.780;9.606;2023-05-07T09:19:51;3.67;;;2.30;;
19929;SDS011;10127;47.780;9.606;2023-05-07T09:22:18;3.45;;;2.25;;
19929;SDS011;10127;47.780;9.606;2023-05-07T09:24:47;3.63;;;2.15;;
19929;SDS011;10127;47.780;9.606;2023-05-07T09:27:14;4.38;;;2.45;;
19929;SDS011;10127;47.780;9.606;2023-05-07T09:29:40;3.55;;;2.17;;
19929;SDS011;10127;47.780;9.606;2023-05-07T09:32:06;3.58;;;2.00;;
19929;SDS011;10127;47.780;9.606;2023-05-07T09:34:33;2.78;;;2.17;;
19929;SDS011;10127;47.780;9.606;2023-05-07T09:37:03;2.58;;;2.05;;
19929;SDS011;10127;47.780;9.606;2023-05-07T09:39:39;2.85;;;1.80;;
19929;SDS011;10127;47.780;9.606;2023-05-07T09:42:12;3.08;;;2.20;;
19929;SDS011;10127;47.780;9.606;2023-05-07T09:44:39;3.90;;;1.90;;
19929;SDS011;10127;47.780;9.606;2023-05-07T09:47:06;3.70;;;2.17;;
19929;SDS011;10127;47.780;9.606;2023-05-07T09:49:34;5.22;;;2.40;;
19929;SDS011;10127;47.780;9.606;2023-05-07T09:52:04;5.50;;;2.40;;
19929;SDS011;10127;47.780;9.606;2023-05-07T09:54:32;3.85;;;2.38;;
19929;SDS011;10127;47.780;9.606;2023-05-07T09:56:58;3.17;;;2.28;;
19929;SDS011;10127;47.780;9.606;2023-05-07T09:59:27;6.32;;;2.80;;
19929;SDS011;10127;47.780;9.606;2023-05-07T10:01:55;3.30;;;2.40;;
19929;SDS011;10127;47.780;9.606;2023-05-07T10:04:23;4.53;;;2.20;;
19929;SDS011;10127;47.780;9.606;2023-05-07T10:06:50;5.90;;;2.60;;
19929;SDS011;10127;47.780;9.606;2023-05-07T10:09:16;4.65;;;2.00;;
19929;SDS011;10127;47.780;9.606;2023-05-07T10:11:42;2.30;;;1.90;;
19929;SDS011;10127;47.780;9.606;2023-05-07T10:14:08;3.75;;;2.10;;
19929;SDS011;10127;47.780;9.606;2023-05-07T10:16:35;3.65;;;1.90;;
19929;SDS011;10127;47.780;9.606;2023-05-07T10:19:04;3.28;;;1.48;;
19929;SDS011;10127;47.780;9.606;2023-05-07T10:21:32;1.92;;;1.60;;
19929;SDS011;10127;47.780;9.606;2023-05-07T10:24:12;4.40;;;1.58;;
19929;SDS011;10127;47.780;9.606;2023-05-07T10:26:45;4.57;;;1.77;;
19929;SDS011;10127;47.780;9.606;2023-05-07T10:31:59;2.08;;;1.40;;
19929;SDS011;10127;47.780;9.606;2023-05-07T10:34:32;3.80;;;1.48;;
19929;SDS011;10127;47.780;9.606;2023-05-07T10:37:02;1.65;;;1.38;;
19929;SDS011;10127;47.780;9.606;2023-05-07T10:39:29;3.90;;;1.50;;
19929;SDS011;10127;47.780;9.606;2023-05-07T10:41:55;3.22;;;1.20;;
19929;SDS011;10127;47.780;9.606;2023-05-07T10:44:25;5.25;;;1.23;;
19929;SDS011;10127;47.780;9.606;2023-05-07T10:47:04;3.15;;;1.30;;
19929;SDS011;10127;47.780;9.606;2023-05-07T10:49:33;3.85;;;1.27;;
19929;SDS011;10127;47.780;9.606;2023-05-07T10:52:12;1.70;;;1.10;;
19929;SDS011;10127;47.780;9.606;2023-05-07T10:54:42;1.77;;;1.15;;
19929;SDS011;10127;47.780;9.606;2023-05-07T10:59:56;2.65;;;1.05;;
19929;SDS011;10127;47.780;9.606;2023-05-07T11:02:22;4.53;;;1.20;;
19929;SDS011;10127;47.780;9.606;2023-05-07T11:07:57;3.08;;;1.00;;
19929;SDS011;10127;47.780;9.606;2023-05-07T11:13:19;2.70;;;1.00;;
19929;SDS011;10127;47.780;9.606;2023-05-07T11:16:24;1.77;;;1.30;;
19929;SDS011;10127;47.780;9.606;2023-05-07T11:18:54;1.67;;;1.13;;
19929;SDS011;10127;47.780;9.606;2023-05-07T11:21:39;1.48;;;1.00;;
19929;SDS011;10127;47.780;9.606;2023-05-07T11:24:07;1.90;;;1.10;;
19929;SDS011;10127;47.780;9.606;2023-05-07T11:26:43;1.75;;;1.10;;
19929;SDS011;10127;47.780;9.606;2023-05-07T11:29:20;1.23;;;1.10;;
19929;SDS011;10127;47.780;9.606;2023-05-07T11:31:50;1.70;;;1.27;;
19929;SDS011;10127;47.780;9.606;2023-05-07T11:34:20;1.63;;;1.05;;
19929;SDS011;10127;47.780;9.606;2023-05-07T11:36:47;1.67;;;1.00;;
19929;SDS011;10127;47.780;9.606;2023-05-07T11:39:26;2.90;;;1.10;;
19929;SDS011;10127;47.780;9.606;2023-05-07T11:41:52;2.50;;;0.90;;
19929;SDS011;10127;47.780;9.606;2023-05-07T11:44:18;1.35;;;0.80;;
19929;SDS011;10127;47.780;9.606;2023-05-07T11:46:43;2.08;;;1.00;;
19929;SDS011;10127;47.780;9.606;2023-05-07T11:49:10;3.45;;;1.00;;
19929;SDS011;10127;47.780;9.606;2023-05-07T11:51:35;3.95;;;1.05;;
19929;SDS011;10127;47.780;9.606;2023-05-07T11:54:03;1.88;;;1.20;;
19929;SDS011;10127;47.780;9.606;2023-05-07T11:56:31;1.52;;;1.00;;
19929;SDS011;10127;47.780;9.606;2023-05-07T11:58:59;4.20;;;1.17;;
19929;SDS011;10127;47.780;9.606;2023-05-07T12:01:25;4.80;;;0.98;;
19929;SDS011;10127;47.780;9.606;2023-05-07T12:03:50;2.05;;;0.93;;
19929;SDS011;10127;47.780;9.606;2023-05-07T12:06:16;2.70;;;1.23;;
19929;SDS011;10127;47.780;9.606;2023-05-07T12:08:43;1.60;;;0.82;;
19929;SDS011;10127;47.780;9.606;2023-05-07T12:11:14;2.47;;;1.17;;
19929;SDS011;10127;47.780;9.606;2023-05-07T12:13:46;1.65;;;1.10;;
19929;SDS011;10127;47.780;9.606;2023-05-07T12:16:12;1.08;;;0.88;;
19929;SDS011;10127;47.780;9.606;2023-05-07T12:18:38;2.10;;;1.08;;
19929;SDS011;10127;47.780;9.606;2023-05-07T12:21:05;4.13;;;1.02;;
19929;SDS011;10127;47.780;9.606;2023-05-07T12:23:31;1.52;;;1.13;;
19929;SDS011;10127;47.780;9.606;2023-05-07T12:25:58;1.35;;;1.08;;
19929;SDS011;10127;47.780;9.606;2023-05-07T12:28:24;3.70;;;1.17;;
19929;SDS011;10127;47.780;9.606;2023-05-07T12:30:50;2.33;;;1.10;;
19929;SDS011;10127;47.780;9.606;2023-05-07T12:33:17;3.63;;;1.20;;
19929;SDS011;10127;47.780;9.606;2023-05-07T12:35:45;2.47;;;1.08;;
19929;SDS011;10127;47.780;9.606;2023-05-07T12:38:13;3.20;;;1.17;;
19929;SDS011;10127;47.780;9.606;2023-05-07T12:40:40;3.30;;;1.20;;
19929;SDS011;10127;47.780;9.606;2023-05-07T12:43:07;2.10;;;1.10;;
19929;SDS011;10127;47.780;9.606;2023-05-07T12:45:40;3.30;;;1.35;;
19929;SDS011;10127;47.780;9.606;2023-05-07T12:48:06;6.03;;;1.20;;
19929;SDS011;10127;47.780;9.606;2023-05-07T12:50:34;1.83;;;1.20;;
19929;SDS011;10127;47.780;9.606;2023-05-07T12:53:00;3.05;;;1.10;;
19929;SDS011;10127;47.780;9.606;2023-05-07T12:55:30;3.78;;;1.25;;
19929;SDS011;10127;47.780;9.606;2023-05-07T12:57:57;1.55;;;1.20;;
19929;SDS011;10127;47.780;9.606;2023-05-07T13:00:36;2.58;;;1.23;;
19929;SDS011;10127;47.780;9.606;2023-05-07T13:03:03;1.58;;;1.27;;
19929;SDS011;10127;47.780;9.606;2023-05-07T13:05:29;2.40;;;1.25;;
19929;SDS011;10127;47.780;9.606;2023-05-07T13:07:56;2.03;;;1.20;;
19929;SDS011;10127;47.780;9.606;2023-05-07T13:10:22;2.63;;;1.15;;
19929;SDS011;10127;47.780;9.606;2023-05-07T13:12:48;1.58;;;0.85;;
19929;SDS011;10127;47.780;9.606;2023-05-07T13:15:14;3.53;;;1.30;;
19929;SDS011;10127;47.780;9.606;2023-05-07T13:17:40;1.90;;;0.90;;
19929;SDS011;10127;47.780;9.606;2023-05-07T13:20:05;1.45;;;1.02;;
19929;SDS011;10127;47.780;9.606;2023-05-07T13:22:33;2.95;;;1.27;;
19929;SDS011;10127;47.780;9.606;2023-05-07T13:24:58;4.30;;;1.40;;
19929;SDS011;10127;47.780;9.606;2023-05-07T13:27:24;3.30;;;1.52;;
19929;SDS011;10127;47.780;9.606;2023-05-07T13:29:50;1.73;;;1.20;;
19929;SDS011;10127;47.780;9.606;2023-05-07T13:32:16;4.00;;;1.40;;
19929;SDS011;10127;47.780;9.606;2023-05-07T13:34:41;2.95;;;1.20;;
19929;SDS011;10127;47.780;9.606;2023-05-07T13:37:07;1.73;;;1.20;;
19929;SDS011;10127;47.780;9.606;2023-05-07T13:39:32;3.53;;;1.27;;
19929;SDS011;10127;47.780;9.606;2023-05-07T13:41:58;2.95;;;1.38;;
19929;SDS011;10127;47.780;9.606;2023-05-07T13:44:24;2.85;;;1.13;;
19929;SDS011;10127;47.780;9.606;2023-05-07T13:46:49;1.65;;;1.30;;
19929;SDS011;10127;47.780;9.606;2023-05-07T13:49:15;1.38;;;1.10;;
19929;SDS011;10127;47.780;9.606;2023-05-07T13:51:40;1.67;;;1.00;;
19929;SDS011;10127;47.780;9.606;2023-05-07T13:54:06;4.75;;;1.48;;
19929;SDS011;10127;47.780;9.606;2023-05-07T13:56:32;2.38;;;1.20;;
19929;SDS011;10127;47.780;9.606;2023-05-07T13:58:58;2.90;;;1.42;;
19929;SDS011;10127;47.780;9.606;2023-05-07T14:01:23;3.80;;;1.20;;
19929;SDS011;10127;47.780;9.606;2023-05-07T14:03:49;3.78;;;1.30;;
19929;SDS011;10127;47.780;9.606;2023-05-07T14:06:14;2.38;;;1.13;;
19929;SDS011;10127;47.780;9.606;2023-05-07T14:08:40;1.92;;;1.33;;
19929;SDS011;10127;47.780;9.606;2023-05-07T14:11:05;3.38;;;1.23;;
19929;SDS011;10127;47.780;9.606;2023-05-07T14:13:31;2.25;;;1.40;;
19929;SDS011;10127;47.780;9.606;2023-05-07T14:15:57;2.55;;;1.50;;
19929;SDS011;10127;47.780;9.606;2023-05-07T14:18:23;4.57;;;1.40;;
19929;SDS011;10127;47.780;9.606;2023-05-07T14:20:48;2.58;;;1.10;;
19929;SDS011;10127;47.780;9.606;2023-05-07T14:23:14;2.95;;;1.50;;
19929;SDS011;10127;47.780;9.606;2023-05-07T14:25:40;2.97;;;1.40;;
19929;SDS011;10127;47.780;9.606;2023-05-07T14:28:06;2.45;;;1.33;;
19929;SDS011;10127;47.780;9.606;2023-05-07T14:30:31;1.30;;;1.20;;
19929;SDS011;10127;47.780;9.606;2023-05-07T14:32:57;1.38;;;1.10;;
19929;SDS011;10127;47.780;9.606;2023-05-07T14:35:22;4.38;;;1.38;;
19929;SDS011;10127;47.780;9.606;2023-05-07T14:37:48;3.30;;;1.02;;
19929;SDS011;10127;47.780;9.606;2023-05-07T14:40:13;2.78;;;1.45;;
19929;SDS011;10127;47.780;9.606;2023-05-07T14:42:39;1.52;;;1.20;;
19929;SDS011;10127;47.780;9.606;2023-05-07T14:45:05;1.88;;;1.30;;
19929;SDS011;10127;47.780;9.606;2023-05-07T14:47:38;3.38;;;1.42;;
19929;SDS011;10127;47.780;9.606;2023-05-07T14:50:04;1.45;;;1.10;;
19929;SDS011;10127;47.780;9.606;2023-05-07T14:52:29;1.40;;;1.17;;
19929;SDS011;10127;47.780;9.606;2023-05-07T14:54:55;4.45;;;1.20;;
19929;SDS011;10127;47.780;9.606;2023-05-07T14:57:21;4.10;;;1.10;;
19929;SDS011;10127;47.780;9.606;2023-05-07T14:59:46;2.47;;;1.00;;
19929;SDS011;10127;47.780;9.606;2023-05-07T15:02:12;4.60;;;0.80;;
19929;SDS011;10127;47.780;9.606;2023-05-07T15:04:38;5.22;;;0.75;;
19929;SDS011;10127;47.780;9.606;2023-05-07T15:07:10;4.63;;;1.10;;
19929;SDS011;10127;47.780;9.606;2023-05-07T15:09:36;4.35;;;0.90;;
19929;SDS011;10127;47.780;9.606;2023-05-07T15:12:02;3.30;;;0.80;;
19929;SDS011;10127;47.780;9.606;2023-05-07T15:14:28;3.22;;;0.70;;
19929;SDS011;10127;47.780;9.606;2023-05-07T15:16:54;2.15;;;0.63;;